sensor_id;sensor_type;location;lat;lon;timestamp;temperature;humidity
4655;DHT22;2340;47.814;9.798;2023-06-10T00:00:53;19.20;97.00
4655;DHT22;2340;47.814;9.798;2023-06-10T00:03:18;19.20;97.30
4655;DHT22;2340;47.814;9.798;2023-06-10T00:05:44;19.10;97.30
4655;DHT22;2340;47.814;9.798;2023-06-10T00:08:10;19.00;97.70
4655;DHT22;2340;47.814;9.798;2023-06-10T00:10:37;18.90;97.90
4655;DHT22;2340;47.814;9.798;2023-06-10T00:13:03;18.80;98.20
4655;DHT22;2340;47.814;9.798;2023-06-10T00:15:29;18.70;98.40
4655;DHT22;2340;47.814;9.798;2023-06-10T00:17:55;18.70;98.60
4655;DHT22;2340;47.814;9.798;2023-06-10T00:20:20;18.60;98.80
4655;DHT22;2340;47.814;9.798;2023-06-10T00:22:47;18.60;99.00
4655;DHT22;2340;47.814;9.798;2023-06-10T00:25:14;18.50;99.20
4655;DHT22;2340;47.814;9.798;2023-06-10T00:27:39;18.50;99.40
4655;DHT22;2340;47.814;9.798;2023-06-10T00:30:05;18.60;99.30
4655;DHT22;2340;47.814;9.798;2023-06-10T00:32:35;18.50;99.70
4655;DHT22;2340;47.814;9.798;2023-06-10T00:35:02;18.60;99.50
4655;DHT22;2340;47.814;9.798;2023-06-10T00:37:28;18.50;99.50
4655;DHT22;2340;47.814;9.798;2023-06-10T00:39:54;18.50;99.80
4655;DHT22;2340;47.814;9.798;2023-06-10T00:42:20;18.50;99.70
4655;DHT22;2340;47.814;9.798;2023-06-10T00:44:46;18.50;99.90
4655;DHT22;2340;47.814;9.798;2023-06-10T00:47:12;18.50;99.90
4655;DHT22;2340;47.814;9.798;2023-06-10T00:49:37;18.50;99.90
4655;DHT22;2340;47.814;9.798;2023-06-10T00:52:03;18.40;99.90
4655;DHT22;2340;47.814;9.798;2023-06-10T00:54:30;18.40;99.90
4655;DHT22;2340;47.814;9.798;2023-06-10T00:56:55;18.20;99.90
4655;DHT22;2340;47.814;9.798;2023-06-10T00:59:21;18.10;99.90
4655;DHT22;2340;47.814;9.798;2023-06-10T01:01:47;18.00;99.90
4655;DHT22;2340;47.814;9.798;2023-06-10T01:04:13;17.90;99.90
4655;DHT22;2340;47.814;9.798;2023-06-10T01:06:53;17.90;99.90
4655;DHT22;2340;47.814;9.798;2023-06-10T01:12:01;17.80;99.90
4655;DHT22;2340;47.814;9.798;2023-06-10T01:14:28;17.80;99.90
4655;DHT22;2340;47.814;9.798;2023-06-10T01:16:54;17.80;99.90
4655;DHT22;2340;47.814;9.798;2023-06-10T01:19:20;17.80;99.90
4655;DHT22;2340;47.814;9.798;2023-06-10T01:21:45;17.80;99.90
4655;DHT22;2340;47.814;9.798;2023-06-10T01:24:14;17.90;99.90
4655;DHT22;2340;47.814;9.798;2023-06-10T01:26:40;17.80;99.90
4655;DHT22;2340;47.814;9.798;2023-06-10T01:29:07;17.70;99.90
4655;DHT22;2340;47.814;9.798;2023-06-10T01:31:38;17.70;99.90
4655;DHT22;2340;47.814;9.798;2023-06-10T01:34:07;17.70;99.90
4655;DHT22;2340;47.814;9.798;2023-06-10T01:36:34;17.70;99.90
4655;DHT22;2340;47.814;9.798;2023-06-10T01:39:00;17.60;99.90
4655;DHT22;2340;47.814;9.798;2023-06-10T01:41:26;17.40;99.90
4655;DHT22;2340;47.814;9.798;2023-06-10T01:43:51;17.20;99.90
4655;DHT22;2340;47.814;9.798;2023-06-10T01:46:17;17.20;99.90
4655;DHT22;2340;47.814;9.798;2023-06-10T01:48:46;17.20;99.90
4655;DHT22;2340;47.814;9.798;2023-06-10T01:51:12;17.10;99.90
4655;DHT22;2340;47.814;9.798;2023-06-10T01:53:37;17.00;99.90
4655;DHT22;2340;47.814;9.798;2023-06-10T01:56:03;17.10;99.90
4655;DHT22;2340;47.814;9.798;2023-06-10T01:58:28;17.10;99.90
4655;DHT22;2340;47.814;9.798;2023-06-10T02:00:54;17.10;99.90
4655;DHT22;2340;47.814;9.798;2023-06-10T02:03:19;17.10;99.90
4655;DHT22;2340;47.814;9.798;2023-06-10T02:05:45;17.20;99.90
4655;DHT22;2340;47.814;9.798;2023-06-10T02:08:10;17.20;99.90
4655;DHT22;2340;47.814;9.798;2023-06-10T02:10:36;17.10;99.90
4655;DHT22;2340;47.814;9.798;2023-06-10T02:13:01;17.10;99.90
4655;DHT22;2340;47.814;9.798;2023-06-10T02:15:27;17.10;99.90
4655;DHT22;2340;47.814;9.798;2023-06-10T02:17:52;17.00;99.90
4655;DHT22;2340;47.814;9.798;2023-06-10T02:20:19;17.00;99.90
4655;DHT22;2340;47.814;9.798;2023-06-10T02:22:46;17.00;99.90
4655;DHT22;2340;47.814;9.798;2023-06-10T02:25:11;17.10;99.90
4655;DHT22;2340;47.814;9.798;2023-06-10T02:27:37;17.00;99.90
4655;DHT22;2340;47.814;9.798;2023-06-10T02:30:02;17.00;99.90
4655;DHT22;2340;47.814;9.798;2023-06-10T02:32:28;16.90;99.90
4655;DHT22;2340;47.814;9.798;2023-06-10T02:34:54;16.80;99.90
4655;DHT22;2340;47.814;9.798;2023-06-10T02:37:19;16.80;99.90
4655;DHT22;2340;47.814;9.798;2023-06-10T02:39:45;16.70;99.90
4655;DHT22;2340;47.814;9.798;2023-06-10T02:42:11;16.70;99.90
4655;DHT22;2340;47.814;9.798;2023-06-10T02:44:37;16.70;99.90
4655;DHT22;2340;47.814;9.798;2023-06-10T02:47:02;16.70;99.90
4655;DHT22;2340;47.814;9.798;2023-06-10T02:49:28;16.60;99.90
4655;DHT22;2340;47.814;9.798;2023-06-10T02:51:53;16.60;99.90
4655;DHT22;2340;47.814;9.798;2023-06-10T02:54:19;16.60;99.90
4655;DHT22;2340;47.814;9.798;2023-06-10T02:56:45;16.60;99.90
4655;DHT22;2340;47.814;9.798;2023-06-10T02:59:13;16.60;99.90
4655;DHT22;2340;47.814;9.798;2023-06-10T03:01:38;16.50;99.90
4655;DHT22;2340;47.814;9.798;2023-06-10T03:04:05;16.50;99.90
4655;DHT22;2340;47.814;9.798;2023-06-10T03:06:30;16.50;99.90
4655;DHT22;2340;47.814;9.798;2023-06-10T03:08:58;16.60;99.90
4655;DHT22;2340;47.814;9.798;2023-06-10T03:11:23;16.60;99.90
4655;DHT22;2340;47.814;9.798;2023-06-10T03:13:51;16.60;99.90
4655;DHT22;2340;47.814;9.798;2023-06-10T03:16:16;16.50;99.90
4655;DHT22;2340;47.814;9.798;2023-06-10T03:18:42;16.60;99.90
4655;DHT22;2340;47.814;9.798;2023-06-10T03:21:07;16.50;99.90
4655;DHT22;2340;47.814;9.798;2023-06-10T03:23:34;16.50;99.90
4655;DHT22;2340;47.814;9.798;2023-06-10T03:26:00;16.30;99.90
4655;DHT22;2340;47.814;9.798;2023-06-10T03:28:25;16.30;99.90
4655;DHT22;2340;47.814;9.798;2023-06-10T03:30:51;16.20;99.90
4655;DHT22;2340;47.814;9.798;2023-06-10T03:33:17;16.30;99.90
4655;DHT22;2340;47.814;9.798;2023-06-10T03:35:42;16.20;99.90
4655;DHT22;2340;47.814;9.798;2023-06-10T03:38:08;16.10;99.90
4655;DHT22;2340;47.814;9.798;2023-06-10T03:40:33;16.10;99.90
4655;DHT22;2340;47.814;9.798;2023-06-10T03:43:00;16.00;99.90
4655;DHT22;2340;47.814;9.798;2023-06-10T03:45:26;16.00;99.90
4655;DHT22;2340;47.814;9.798;2023-06-10T03:47:53;15.90;99.90
4655;DHT22;2340;47.814;9.798;2023-06-10T03:50:19;16.00;99.90
4655;DHT22;2340;47.814;9.798;2023-06-10T03:52:44;16.00;99.90
4655;DHT22;2340;47.814;9.798;2023-06-10T03:55:11;16.00;99.90
4655;DHT22;2340;47.814;9.798;2023-06-10T03:57:39;16.00;99.90
4655;DHT22;2340;47.814;9.798;2023-06-10T04:00:04;15.90;99.90
4655;DHT22;2340;47.814;9.798;2023-06-10T04:02:37;15.90;99.90
4655;DHT22;2340;47.814;9.798;2023-06-10T04:05:07;15.90;99.90
4655;DHT22;2340;47.814;9.798;2023-06-10T04:07:32;15.90;99.90
4655;DHT22;2340;47.814;9.798;2023-06-10T04:09:59;16.00;99.90
4655;DHT22;2340;47.814;9.798;2023-06-10T04:12:25;16.00;99.90
4655;DHT22;2340;47.814;9.798;2023-06-10T04:14:50;15.90;99.90
4655;DHT22;2340;47.814;9.798;2023-06-10T04:17:17;15.90;99.90
4655;DHT22;2340;47.814;9.798;2023-06-10T04:19:43;15.90;99.90
4655;DHT22;2340;47.814;9.798;2023-06-10T04:22:08;15.90;99.90
4655;DHT22;2340;47.814;9.798;2023-06-10T04:24:34;15.90;99.90
4655;DHT22;2340;47.814;9.798;2023-06-10T04:27:00;16.00;99.90
4655;DHT22;2340;47.814;9.798;2023-06-10T04:29:26;16.00;99.90
4655;DHT22;2340;47.814;9.798;2023-06-10T04:31:51;16.00;99.90
4655;DHT22;2340;47.814;9.798;2023-06-10T04:34:17;16.00;99.90
4655;DHT22;2340;47.814;9.798;2023-06-10T04:36:42;16.00;99.90
4655;DHT22;2340;47.814;9.798;2023-06-10T04:39:08;16.00;99.90
4655;DHT22;2340;47.814;9.798;2023-06-10T04:41:33;16.10;99.90
4655;DHT22;2340;47.814;9.798;2023-06-10T04:43:59;16.20;99.90
4655;DHT22;2340;47.814;9.798;2023-06-10T04:46:24;16.30;99.90
4655;DHT22;2340;47.814;9.798;2023-06-10T04:48:50;16.40;99.90
4655;DHT22;2340;47.814;9.798;2023-06-10T04:51:15;16.40;99.90
4655;DHT22;2340;47.814;9.798;2023-06-10T04:53:42;16.50;99.90
4655;DHT22;2340;47.814;9.798;2023-06-10T04:56:07;16.60;99.90
4655;DHT22;2340;47.814;9.798;2023-06-10T04:58:33;16.60;99.90
4655;DHT22;2340;47.814;9.798;2023-06-10T05:00:58;16.60;99.90
4655;DHT22;2340;47.814;9.798;2023-06-10T05:03:25;16.60;99.90
4655;DHT22;2340;47.814;9.798;2023-06-10T05:05:50;16.70;99.90
4655;DHT22;2340;47.814;9.798;2023-06-10T05:08:16;16.70;99.90
4655;DHT22;2340;47.814;9.798;2023-06-10T05:10:41;16.80;99.90
4655;DHT22;2340;47.814;9.798;2023-06-10T05:13:07;16.70;99.90
4655;DHT22;2340;47.814;9.798;2023-06-10T05:15:32;16.70;99.90
4655;DHT22;2340;47.814;9.798;2023-06-10T05:17:58;16.80;99.90
4655;DHT22;2340;47.814;9.798;2023-06-10T05:20:24;16.90;99.90
4655;DHT22;2340;47.814;9.798;2023-06-10T05:22:50;16.90;99.90
4655;DHT22;2340;47.814;9.798;2023-06-10T05:25:16;16.90;99.90
4655;DHT22;2340;47.814;9.798;2023-06-10T05:27:41;17.00;99.90
4655;DHT22;2340;47.814;9.798;2023-06-10T05:30:08;17.10;99.90
4655;DHT22;2340;47.814;9.798;2023-06-10T05:32:34;17.00;99.90
4655;DHT22;2340;47.814;9.798;2023-06-10T05:34:59;17.10;99.90
4655;DHT22;2340;47.814;9.798;2023-06-10T05:37:26;17.10;99.90
4655;DHT22;2340;47.814;9.798;2023-06-10T05:39:51;17.10;99.90
4655;DHT22;2340;47.814;9.798;2023-06-10T05:42:17;17.10;99.90
4655;DHT22;2340;47.814;9.798;2023-06-10T05:44:43;17.20;99.90
4655;DHT22;2340;47.814;9.798;2023-06-10T05:47:08;17.20;99.90
4655;DHT22;2340;47.814;9.798;2023-06-10T05:49:34;17.20;99.90
4655;DHT22;2340;47.814;9.798;2023-06-10T05:51:59;17.30;99.90
4655;DHT22;2340;47.814;9.798;2023-06-10T05:54:25;17.30;99.90
4655;DHT22;2340;47.814;9.798;2023-06-10T05:56:51;17.30;99.90
4655;DHT22;2340;47.814;9.798;2023-06-10T05:59:16;17.40;99.90
4655;DHT22;2340;47.814;9.798;2023-06-10T06:01:42;17.50;99.90
4655;DHT22;2340;47.814;9.798;2023-06-10T06:04:07;17.50;99.90
4655;DHT22;2340;47.814;9.798;2023-06-10T06:06:34;17.50;99.90
4655;DHT22;2340;47.814;9.798;2023-06-10T06:09:00;17.60;99.90
4655;DHT22;2340;47.814;9.798;2023-06-10T06:11:25;17.70;99.90
4655;DHT22;2340;47.814;9.798;2023-06-10T06:13:51;17.70;99.90
4655;DHT22;2340;47.814;9.798;2023-06-10T06:16:17;17.70;99.90
4655;DHT22;2340;47.814;9.798;2023-06-10T06:18:43;17.80;99.90
4655;DHT22;2340;47.814;9.798;2023-06-10T06:21:09;17.80;99.90
4655;DHT22;2340;47.814;9.798;2023-06-10T06:23:34;17.90;99.90
4655;DHT22;2340;47.814;9.798;2023-06-10T06:26:00;17.90;99.90
4655;DHT22;2340;47.814;9.798;2023-06-10T06:28:26;17.90;99.90
4655;DHT22;2340;47.814;9.798;2023-06-10T06:30:57;17.90;99.90
4655;DHT22;2340;47.814;9.798;2023-06-10T06:33:22;17.90;99.90
4655;DHT22;2340;47.814;9.798;2023-06-10T06:35:48;18.00;99.90
4655;DHT22;2340;47.814;9.798;2023-06-10T06:38:13;18.00;99.90
4655;DHT22;2340;47.814;9.798;2023-06-10T06:40:39;18.10;99.90
4655;DHT22;2340;47.814;9.798;2023-06-10T06:43:04;18.10;99.90
4655;DHT22;2340;47.814;9.798;2023-06-10T06:45:30;18.10;99.90
4655;DHT22;2340;47.814;9.798;2023-06-10T06:47:55;18.20;99.90
4655;DHT22;2340;47.814;9.798;2023-06-10T06:50:21;18.20;99.90
4655;DHT22;2340;47.814;9.798;2023-06-10T06:52:46;18.30;99.90
4655;DHT22;2340;47.814;9.798;2023-06-10T06:55:12;18.30;99.90
4655;DHT22;2340;47.814;9.798;2023-06-10T06:57:38;18.30;99.90
4655;DHT22;2340;47.814;9.798;2023-06-10T07:00:03;18.40;99.90
4655;DHT22;2340;47.814;9.798;2023-06-10T07:02:29;18.40;99.90
4655;DHT22;2340;47.814;9.798;2023-06-10T07:04:57;18.40;99.90
4655;DHT22;2340;47.814;9.798;2023-06-10T07:07:24;18.50;99.90
4655;DHT22;2340;47.814;9.798;2023-06-10T07:09:49;18.50;99.90
4655;DHT22;2340;47.814;9.798;2023-06-10T07:12:15;18.50;99.90
4655;DHT22;2340;47.814;9.798;2023-06-10T07:14:40;18.60;99.90
4655;DHT22;2340;47.814;9.798;2023-06-10T07:17:06;18.70;99.90
4655;DHT22;2340;47.814;9.798;2023-06-10T07:19:31;18.70;99.90
4655;DHT22;2340;47.814;9.798;2023-06-10T07:21:57;18.80;99.90
4655;DHT22;2340;47.814;9.798;2023-06-10T07:24:22;18.90;99.90
4655;DHT22;2340;47.814;9.798;2023-06-10T07:26:48;19.00;99.90
4655;DHT22;2340;47.814;9.798;2023-06-10T07:29:13;19.00;99.90
4655;DHT22;2340;47.814;9.798;2023-06-10T07:31:40;19.10;99.90
4655;DHT22;2340;47.814;9.798;2023-06-10T07:34:05;19.20;99.90
4655;DHT22;2340;47.814;9.798;2023-06-10T07:36:31;19.20;99.90
4655;DHT22;2340;47.814;9.798;2023-06-10T07:38:56;19.30;99.90
4655;DHT22;2340;47.814;9.798;2023-06-10T07:41:23;19.30;99.90
4655;DHT22;2340;47.814;9.798;2023-06-10T07:43:50;19.30;99.90
4655;DHT22;2340;47.814;9.798;2023-06-10T07:46:20;19.40;99.90
4655;DHT22;2340;47.814;9.798;2023-06-10T07:48:46;19.40;99.90
4655;DHT22;2340;47.814;9.798;2023-06-10T07:51:12;19.50;99.90
4655;DHT22;2340;47.814;9.798;2023-06-10T07:53:37;19.70;99.90
4655;DHT22;2340;47.814;9.798;2023-06-10T07:56:03;19.70;99.90
4655;DHT22;2340;47.814;9.798;2023-06-10T07:58:28;19.80;99.90
4655;DHT22;2340;47.814;9.798;2023-06-10T08:00:54;19.90;99.90
4655;DHT22;2340;47.814;9.798;2023-06-10T08:03:19;20.00;99.90
4655;DHT22;2340;47.814;9.798;2023-06-10T08:05:45;20.00;99.90
4655;DHT22;2340;47.814;9.798;2023-06-10T08:08:10;20.10;99.90
4655;DHT22;2340;47.814;9.798;2023-06-10T08:10:36;20.20;99.90
4655;DHT22;2340;47.814;9.798;2023-06-10T08:13:02;20.20;99.90
4655;DHT22;2340;47.814;9.798;2023-06-10T08:15:27;20.20;99.90
4655;DHT22;2340;47.814;9.798;2023-06-10T08:17:53;20.30;99.90
4655;DHT22;2340;47.814;9.798;2023-06-10T08:20:18;20.30;99.90
4655;DHT22;2340;47.814;9.798;2023-06-10T08:22:44;20.40;99.90
4655;DHT22;2340;47.814;9.798;2023-06-10T08:25:09;20.30;99.90
4655;DHT22;2340;47.814;9.798;2023-06-10T08:27:35;20.30;99.90
4655;DHT22;2340;47.814;9.798;2023-06-10T08:30:01;20.40;99.90
4655;DHT22;2340;47.814;9.798;2023-06-10T08:32:26;20.40;99.90
4655;DHT22;2340;47.814;9.798;2023-06-10T08:34:52;20.50;99.90
4655;DHT22;2340;47.814;9.798;2023-06-10T08:37:17;20.50;99.90
4655;DHT22;2340;47.814;9.798;2023-06-10T08:39:43;20.50;99.90
4655;DHT22;2340;47.814;9.798;2023-06-10T08:42:17;20.60;99.90
4655;DHT22;2340;47.814;9.798;2023-06-10T08:44:47;20.60;99.90
4655;DHT22;2340;47.814;9.798;2023-06-10T08:47:15;20.70;99.90
4655;DHT22;2340;47.814;9.798;2023-06-10T08:49:42;20.70;99.90
4655;DHT22;2340;47.814;9.798;2023-06-10T08:52:08;20.80;99.90
4655;DHT22;2340;47.814;9.798;2023-06-10T08:54:36;20.90;99.90
4655;DHT22;2340;47.814;9.798;2023-06-10T08:57:04;21.00;99.90
4655;DHT22;2340;47.814;9.798;2023-06-10T08:59:31;21.00;99.90
4655;DHT22;2340;47.814;9.798;2023-06-10T09:01:56;21.10;99.90
4655;DHT22;2340;47.814;9.798;2023-06-10T09:04:23;21.20;99.90
4655;DHT22;2340;47.814;9.798;2023-06-10T09:06:49;21.40;99.90
4655;DHT22;2340;47.814;9.798;2023-06-10T09:09:15;21.40;99.90
4655;DHT22;2340;47.814;9.798;2023-06-10T09:11:41;21.50;99.90
4655;DHT22;2340;47.814;9.798;2023-06-10T09:14:07;21.50;99.90
4655;DHT22;2340;47.814;9.798;2023-06-10T09:16:33;21.50;99.90
4655;DHT22;2340;47.814;9.798;2023-06-10T09:18:58;21.60;99.90
4655;DHT22;2340;47.814;9.798;2023-06-10T09:21:24;21.50;99.90
4655;DHT22;2340;47.814;9.798;2023-06-10T09:23:50;21.70;99.90
4655;DHT22;2340;47.814;9.798;2023-06-10T09:26:16;21.70;99.90
4655;DHT22;2340;47.814;9.798;2023-06-10T09:28:43;21.80;99.90
4655;DHT22;2340;47.814;9.798;2023-06-10T09:31:09;21.90;99.90
4655;DHT22;2340;47.814;9.798;2023-06-10T09:33:38;22.00;99.90
4655;DHT22;2340;47.814;9.798;2023-06-10T09:36:04;22.10;99.90
4655;DHT22;2340;47.814;9.798;2023-06-10T09:38:31;22.10;99.90
4655;DHT22;2340;47.814;9.798;2023-06-10T09:40:57;22.20;99.90
4655;DHT22;2340;47.814;9.798;2023-06-10T09:43:22;22.30;99.90
4655;DHT22;2340;47.814;9.798;2023-06-10T09:45:48;22.40;99.90
4655;DHT22;2340;47.814;9.798;2023-06-10T09:48:14;22.40;99.90
4655;DHT22;2340;47.814;9.798;2023-06-10T09:50:43;22.50;99.90
4655;DHT22;2340;47.814;9.798;2023-06-10T09:53:09;22.60;99.90
4655;DHT22;2340;47.814;9.798;2023-06-10T09:55:38;22.60;99.90
4655;DHT22;2340;47.814;9.798;2023-06-10T09:58:04;22.70;99.90
4655;DHT22;2340;47.814;9.798;2023-06-10T10:00:31;22.80;99.90
4655;DHT22;2340;47.814;9.798;2023-06-10T10:02:57;22.90;99.90
4655;DHT22;2340;47.814;9.798;2023-06-10T10:05:22;23.00;99.90
4655;DHT22;2340;47.814;9.798;2023-06-10T10:07:48;23.00;99.90
4655;DHT22;2340;47.814;9.798;2023-06-10T10:10:14;23.00;99.90
4655;DHT22;2340;47.814;9.798;2023-06-10T10:12:41;23.00;99.90
4655;DHT22;2340;47.814;9.798;2023-06-10T10:15:07;23.00;99.90
4655;DHT22;2340;47.814;9.798;2023-06-10T10:18:09;23.00;99.90
4655;DHT22;2340;47.814;9.798;2023-06-10T10:20:29;23.10;99.90
4655;DHT22;2340;47.814;9.798;2023-06-10T10:22:58;23.30;99.90
4655;DHT22;2340;47.814;9.798;2023-06-10T10:25:26;23.50;99.90
4655;DHT22;2340;47.814;9.798;2023-06-10T10:28:13;23.70;99.90
4655;DHT22;2340;47.814;9.798;2023-06-10T10:30:51;23.80;99.90
4655;DHT22;2340;47.814;9.798;2023-06-10T10:33:18;23.90;99.90
4655;DHT22;2340;47.814;9.798;2023-06-10T10:35:45;24.00;99.90
4655;DHT22;2340;47.814;9.798;2023-06-10T10:38:11;24.20;99.90
4655;DHT22;2340;47.814;9.798;2023-06-10T10:40:36;24.30;99.90
4655;DHT22;2340;47.814;9.798;2023-06-10T10:43:02;24.40;99.90
4655;DHT22;2340;47.814;9.798;2023-06-10T10:45:31;24.50;99.90
4655;DHT22;2340;47.814;9.798;2023-06-10T10:47:58;24.60;99.90
4655;DHT22;2340;47.814;9.798;2023-06-10T10:50:28;24.70;99.90
4655;DHT22;2340;47.814;9.798;2023-06-10T10:53:01;24.80;99.90
4655;DHT22;2340;47.814;9.798;2023-06-10T10:55:27;24.90;99.90
4655;DHT22;2340;47.814;9.798;2023-06-10T10:57:56;25.00;99.90
4655;DHT22;2340;47.814;9.798;2023-06-10T11:00:29;25.20;99.90
4655;DHT22;2340;47.814;9.798;2023-06-10T11:03:14;25.30;99.90
4655;DHT22;2340;47.814;9.798;2023-06-10T11:05:45;25.40;99.90
4655;DHT22;2340;47.814;9.798;2023-06-10T11:08:13;25.50;99.90
4655;DHT22;2340;47.814;9.798;2023-06-10T11:10:51;25.60;99.90
4655;DHT22;2340;47.814;9.798;2023-06-10T11:13:21;25.80;99.90
4655;DHT22;2340;47.814;9.798;2023-06-10T11:15:48;25.80;99.90
4655;DHT22;2340;47.814;9.798;2023-06-10T11:18:22;25.90;99.90
4655;DHT22;2340;47.814;9.798;2023-06-10T11:25:51;26.30;99.90
4655;DHT22;2340;47.814;9.798;2023-06-10T11:28:19;26.50;99.90
4655;DHT22;2340;47.814;9.798;2023-06-10T11:30:45;26.40;99.90
4655;DHT22;2340;47.814;9.798;2023-06-10T11:33:16;26.30;99.90
4655;DHT22;2340;47.814;9.798;2023-06-10T11:35:42;26.20;99.90
4655;DHT22;2340;47.814;9.798;2023-06-10T11:38:07;26.10;99.90
4655;DHT22;2340;47.814;9.798;2023-06-10T11:40:33;26.40;99.90
4655;DHT22;2340;47.814;9.798;2023-06-10T11:43:00;26.70;99.90
4655;DHT22;2340;47.814;9.798;2023-06-10T11:45:26;27.20;99.90
4655;DHT22;2340;47.814;9.798;2023-06-10T11:47:58;28.00;99.90
4655;DHT22;2340;47.814;9.798;2023-06-10T11:50:31;28.70;99.90
4655;DHT22;2340;47.814;9.798;2023-06-10T11:52:57;28.70;99.90
4655;DHT22;2340;47.814;9.798;2023-06-10T11:55:45;28.30;99.90
4655;DHT22;2340;47.814;9.798;2023-06-10T11:58:16;28.00;99.90
4655;DHT22;2340;47.814;9.798;2023-06-10T12:00:47;27.50;99.90
4655;DHT22;2340;47.814;9.798;2023-06-10T12:03:13;27.10;99.90
4655;DHT22;2340;47.814;9.798;2023-06-10T12:05:39;26.70;99.90
4655;DHT22;2340;47.814;9.798;2023-06-10T12:08:11;26.40;99.90
4655;DHT22;2340;47.814;9.798;2023-06-10T12:10:42;26.60;99.90
4655;DHT22;2340;47.814;9.798;2023-06-10T12:13:08;27.50;99.90
4655;DHT22;2340;47.814;9.798;2023-06-10T12:15:34;28.60;99.90
4655;DHT22;2340;47.814;9.798;2023-06-10T12:18:00;29.40;99.90
4655;DHT22;2340;47.814;9.798;2023-06-10T12:20:27;29.30;99.10
4655;DHT22;2340;47.814;9.798;2023-06-10T12:22:53;28.80;97.90
4655;DHT22;2340;47.814;9.798;2023-06-10T12:25:23;28.40;98.50
4655;DHT22;2340;47.814;9.798;2023-06-10T12:27:51;27.90;99.30
4655;DHT22;2340;47.814;9.798;2023-06-10T12:30:20;27.80;99.20
4655;DHT22;2340;47.814;9.798;2023-06-10T12:32:46;28.40;99.70
4655;DHT22;2340;47.814;9.798;2023-06-10T12:35:12;28.50;98.00
4655;DHT22;2340;47.814;9.798;2023-06-10T12:37:39;29.00;98.20
4655;DHT22;2340;47.814;9.798;2023-06-10T12:40:05;29.50;98.20
4655;DHT22;2340;47.814;9.798;2023-06-10T12:42:36;30.30;97.00
4655;DHT22;2340;47.814;9.798;2023-06-10T12:45:02;30.90;96.70
4655;DHT22;2340;47.814;9.798;2023-06-10T12:47:29;31.30;95.80
4655;DHT22;2340;47.814;9.798;2023-06-10T12:49:57;31.60;94.60
4655;DHT22;2340;47.814;9.798;2023-06-10T12:52:22;31.80;93.70
4655;DHT22;2340;47.814;9.798;2023-06-10T12:54:48;32.20;94.00
4655;DHT22;2340;47.814;9.798;2023-06-10T12:57:13;32.40;93.10
4655;DHT22;2340;47.814;9.798;2023-06-10T12:59:39;32.60;92.60
4655;DHT22;2340;47.814;9.798;2023-06-10T13:02:05;32.40;91.90
4655;DHT22;2340;47.814;9.798;2023-06-10T13:04:31;31.60;92.70
4655;DHT22;2340;47.814;9.798;2023-06-10T13:06:56;30.70;92.80
4655;DHT22;2340;47.814;9.798;2023-06-10T13:09:22;30.10;93.90
4655;DHT22;2340;47.814;9.798;2023-06-10T13:11:47;30.20;94.20
4655;DHT22;2340;47.814;9.798;2023-06-10T13:14:13;30.70;92.60
4655;DHT22;2340;47.814;9.798;2023-06-10T13:16:38;31.00;92.40
4655;DHT22;2340;47.814;9.798;2023-06-10T13:19:04;31.50;92.50
4655;DHT22;2340;47.814;9.798;2023-06-10T13:21:31;32.00;93.00
4655;DHT22;2340;47.814;9.798;2023-06-10T13:23:57;32.30;91.80
4655;DHT22;2340;47.814;9.798;2023-06-10T13:26:22;32.60;90.80
4655;DHT22;2340;47.814;9.798;2023-06-10T13:28:48;32.90;91.80
4655;DHT22;2340;47.814;9.798;2023-06-10T13:31:13;33.00;90.30
4655;DHT22;2340;47.814;9.798;2023-06-10T13:33:39;33.20;90.20
4655;DHT22;2340;47.814;9.798;2023-06-10T13:36:05;33.40;90.00
4655;DHT22;2340;47.814;9.798;2023-06-10T13:38:31;33.50;89.60
4655;DHT22;2340;47.814;9.798;2023-06-10T13:40:56;33.60;88.50
4655;DHT22;2340;47.814;9.798;2023-06-10T13:43:22;33.70;90.00
4655;DHT22;2340;47.814;9.798;2023-06-10T13:45:47;33.70;86.20
4655;DHT22;2340;47.814;9.798;2023-06-10T13:48:13;33.60;87.90
4655;DHT22;2340;47.814;9.798;2023-06-10T13:50:38;33.60;86.80
4655;DHT22;2340;47.814;9.798;2023-06-10T13:53:04;33.70;86.30
4655;DHT22;2340;47.814;9.798;2023-06-10T13:55:29;33.90;88.80
4655;DHT22;2340;47.814;9.798;2023-06-10T13:57:55;34.00;85.00
4655;DHT22;2340;47.814;9.798;2023-06-10T14:00:20;34.10;84.50
4655;DHT22;2340;47.814;9.798;2023-06-10T14:02:46;33.90;85.10
4655;DHT22;2340;47.814;9.798;2023-06-10T14:05:12;34.00;84.60
4655;DHT22;2340;47.814;9.798;2023-06-10T14:07:37;34.20;85.10
4655;DHT22;2340;47.814;9.798;2023-06-10T14:10:03;34.30;83.60
4655;DHT22;2340;47.814;9.798;2023-06-10T14:12:28;34.10;85.30
4655;DHT22;2340;47.814;9.798;2023-06-10T14:14:54;33.50;85.30
4655;DHT22;2340;47.814;9.798;2023-06-10T14:17:19;33.30;86.40
4655;DHT22;2340;47.814;9.798;2023-06-10T14:19:45;33.40;82.20
4655;DHT22;2340;47.814;9.798;2023-06-10T14:22:11;33.30;83.60
4655;DHT22;2340;47.814;9.798;2023-06-10T14:24:36;33.60;84.30
4655;DHT22;2340;47.814;9.798;2023-06-10T14:27:02;33.70;85.50
4655;DHT22;2340;47.814;9.798;2023-06-10T14:29:28;34.00;83.40
4655;DHT22;2340;47.814;9.798;2023-06-10T14:31:57;34.00;83.80
4655;DHT22;2340;47.814;9.798;2023-06-10T14:34:22;34.10;84.20
4655;DHT22;2340;47.814;9.798;2023-06-10T14:36:53;34.00;84.00
4655;DHT22;2340;47.814;9.798;2023-06-10T14:39:19;33.90;84.00
4655;DHT22;2340;47.814;9.798;2023-06-10T14:41:45;33.90;84.00
4655;DHT22;2340;47.814;9.798;2023-06-10T14:44:10;34.00;83.30
4655;DHT22;2340;47.814;9.798;2023-06-10T14:46:36;34.10;82.10
4655;DHT22;2340;47.814;9.798;2023-06-10T14:49:01;34.10;82.20
4655;DHT22;2340;47.814;9.798;2023-06-10T14:51:27;34.20;83.60
4655;DHT22;2340;47.814;9.798;2023-06-10T14:53:53;34.40;84.60
4655;DHT22;2340;47.814;9.798;2023-06-10T14:56:18;34.40;83.20
4655;DHT22;2340;47.814;9.798;2023-06-10T14:58:44;33.90;82.20
4655;DHT22;2340;47.814;9.798;2023-06-10T15:01:09;33.20;82.30
4655;DHT22;2340;47.814;9.798;2023-06-10T15:03:35;32.70;84.10
4655;DHT22;2340;47.814;9.798;2023-06-10T15:06:00;32.60;84.40
4655;DHT22;2340;47.814;9.798;2023-06-10T15:08:26;32.70;84.50
4655;DHT22;2340;47.814;9.798;2023-06-10T15:10:53;32.80;84.60
4655;DHT22;2340;47.814;9.798;2023-06-10T15:13:18;32.90;84.60
4655;DHT22;2340;47.814;9.798;2023-06-10T15:15:44;33.00;84.50
4655;DHT22;2340;47.814;9.798;2023-06-10T15:18:10;32.70;85.00
4655;DHT22;2340;47.814;9.798;2023-06-10T15:20:35;32.70;82.90
4655;DHT22;2340;47.814;9.798;2023-06-10T15:23:01;32.80;82.90
4655;DHT22;2340;47.814;9.798;2023-06-10T15:25:27;32.60;83.90
4655;DHT22;2340;47.814;9.798;2023-06-10T15:27:52;32.30;84.50
4655;DHT22;2340;47.814;9.798;2023-06-10T15:30:18;32.10;85.00
4655;DHT22;2340;47.814;9.798;2023-06-10T15:32:43;32.10;85.80
4655;DHT22;2340;47.814;9.798;2023-06-10T15:35:09;32.00;85.20
4655;DHT22;2340;47.814;9.798;2023-06-10T15:37:34;31.50;85.40
4655;DHT22;2340;47.814;9.798;2023-06-10T15:40:00;31.10;85.20
4655;DHT22;2340;47.814;9.798;2023-06-10T15:42:26;30.70;85.10
4655;DHT22;2340;47.814;9.798;2023-06-10T15:44:51;30.20;86.50
4655;DHT22;2340;47.814;9.798;2023-06-10T15:47:18;29.80;87.40
4655;DHT22;2340;47.814;9.798;2023-06-10T15:49:44;29.40;88.90
4655;DHT22;2340;47.814;9.798;2023-06-10T15:52:09;29.00;89.90
4655;DHT22;2340;47.814;9.798;2023-06-10T15:54:35;28.70;90.30
4655;DHT22;2340;47.814;9.798;2023-06-10T15:57:00;28.50;91.00
4655;DHT22;2340;47.814;9.798;2023-06-10T15:59:29;28.60;91.00
4655;DHT22;2340;47.814;9.798;2023-06-10T16:01:54;28.60;90.70
4655;DHT22;2340;47.814;9.798;2023-06-10T16:04:20;28.70;90.80